createdAt,value
2022-12-09T00:00:30.262Z,0.90
2022-12-09T00:03:23.530Z,0.83
2022-12-09T00:06:10.891Z,1.00
2022-12-09T00:08:58.028Z,1.43
2022-12-09T00:11:45.827Z,1.17
2022-12-09T00:14:32.775Z,1.60
2022-12-09T00:17:19.738Z,1.13
2022-12-09T00:20:07.435Z,1.10
2022-12-09T00:22:54.773Z,0.90
2022-12-09T00:25:41.694Z,1.10
2022-12-09T00:28:28.504Z,1.20
2022-12-09T00:31:19.616Z,1.07
2022-12-09T00:34:06.937Z,1.20
2022-12-09T00:36:54.527Z,0.93
2022-12-09T00:39:41.375Z,1.00
2022-12-09T00:42:28.174Z,1.10
2022-12-09T00:45:14.986Z,0.93
2022-12-09T00:48:02.018Z,1.20
2022-12-09T00:50:48.894Z,1.17
2022-12-09T00:53:36.298Z,1.23
2022-12-09T00:56:23.357Z,0.97
2022-12-09T00:59:10.277Z,1.10
2022-12-09T01:01:57.099Z,1.17
2022-12-09T01:04:44.002Z,1.30
2022-12-09T01:07:31.030Z,0.90
2022-12-09T01:10:18.250Z,1.10
2022-12-09T01:13:05.108Z,1.00
2022-12-09T01:15:53.105Z,1.10
2022-12-09T01:18:39.885Z,1.33
2022-12-09T01:21:26.830Z,1.03
2022-12-09T01:24:13.787Z,1.37
2022-12-09T01:27:01.329Z,0.93
2022-12-09T01:29:48.389Z,1.10
2022-12-09T01:32:35.671Z,1.10
2022-12-09T01:35:22.887Z,1.20
2022-12-09T01:38:09.713Z,1.20
2022-12-09T01:40:57.211Z,1.10
2022-12-09T01:43:44.037Z,1.00
2022-12-09T01:46:31.452Z,1.20
2022-12-09T01:49:18.451Z,1.00
2022-12-09T01:52:12.037Z,1.10
2022-12-09T01:55:01.895Z,1.20
2022-12-09T01:57:49.488Z,0.87
2022-12-09T02:00:36.983Z,1.00
2022-12-09T02:03:27.069Z,1.17
2022-12-09T02:06:14.248Z,0.97
2022-12-09T02:09:04.338Z,1.00
2022-12-09T02:12:05.449Z,1.00
2022-12-09T02:15:20.703Z,1.10
2022-12-09T02:18:16.958Z,0.83
2022-12-09T02:21:11.933Z,1.10
2022-12-09T02:24:13.550Z,0.90
2022-12-09T02:27:09.972Z,0.77
2022-12-09T02:30:21.469Z,1.20
2022-12-09T02:33:34.119Z,1.17
2022-12-09T02:36:31.567Z,0.93
2022-12-09T02:39:20.280Z,1.20
2022-12-09T02:42:08.999Z,0.97
2022-12-09T02:44:59.522Z,1.20
2022-12-09T02:47:49.681Z,1.10
2022-12-09T02:50:42.425Z,1.10
2022-12-09T02:53:33.715Z,1.37
2022-12-09T02:56:21.305Z,1.43
2022-12-09T02:59:09.565Z,1.20
2022-12-09T03:02:18.558Z,1.10
2022-12-09T03:05:16.339Z,0.97
2022-12-09T03:08:31.417Z,1.23
2022-12-09T03:11:24.953Z,1.20
2022-12-09T03:14:26.051Z,1.10
2022-12-09T03:17:25.114Z,1.00
2022-12-09T03:20:17.372Z,1.10
2022-12-09T03:23:07.174Z,1.07
2022-12-09T03:26:00.513Z,1.50
2022-12-09T03:28:53.409Z,1.37
2022-12-09T03:31:43.838Z,1.20
2022-12-09T03:34:36.227Z,1.37
2022-12-09T03:37:25.577Z,1.30
2022-12-09T03:40:15.637Z,1.33
2022-12-09T03:43:18.630Z,1.10
2022-12-09T03:46:06.488Z,1.30
2022-12-09T03:48:53.695Z,1.10
2022-12-09T03:51:51.708Z,1.50
2022-12-09T03:54:47.229Z,1.30
2022-12-09T03:57:36.678Z,1.30
2022-12-09T04:00:25.151Z,1.00
2022-12-09T04:03:12.686Z,1.20
2022-12-09T04:05:59.879Z,1.40
2022-12-09T04:08:47.158Z,0.97
2022-12-09T04:11:34.400Z,1.03
2022-12-09T04:14:21.324Z,1.30
2022-12-09T04:17:08.410Z,1.50
2022-12-09T04:19:55.238Z,1.20
2022-12-09T04:22:42.143Z,1.27
2022-12-09T04:25:29.740Z,1.60
2022-12-09T04:28:17.236Z,1.20
2022-12-09T04:31:07.623Z,1.10
2022-12-09T04:33:54.397Z,1.50
2022-12-09T04:36:41.726Z,1.30
2022-12-09T04:39:29.220Z,1.40
2022-12-09T04:42:16.386Z,1.10
2022-12-09T04:45:03.223Z,1.40
2022-12-09T04:47:50.252Z,1.20
2022-12-09T04:50:37.657Z,1.40
2022-12-09T04:53:24.919Z,1.23
2022-12-09T04:56:22.873Z,1.17
2022-12-09T04:59:10.521Z,1.27
2022-12-09T05:01:57.930Z,1.27
2022-12-09T05:04:44.828Z,1.30
2022-12-09T05:07:32.306Z,1.20
2022-12-09T05:10:20.083Z,1.70
2022-12-09T05:13:07.223Z,1.37
2022-12-09T05:15:54.092Z,1.23
2022-12-09T05:18:41.192Z,1.30
2022-12-09T05:21:34.580Z,1.63
2022-12-09T05:24:24.980Z,1.27
2022-12-09T05:27:12.616Z,1.50
2022-12-09T05:30:00.043Z,1.40
2022-12-09T05:32:46.966Z,1.33
2022-12-09T05:35:39.105Z,1.40
2022-12-09T05:38:32.349Z,1.60
2022-12-09T05:41:20.435Z,1.40
2022-12-09T05:44:07.622Z,1.20
2022-12-09T05:46:54.913Z,1.60
2022-12-09T05:49:42.304Z,1.20
2022-12-09T05:52:29.640Z,1.23
2022-12-09T05:55:16.897Z,1.57
2022-12-09T05:58:04.135Z,1.47
2022-12-09T06:00:50.972Z,1.10
2022-12-09T06:03:38.016Z,1.50
2022-12-09T06:06:31.411Z,1.57
2022-12-09T06:09:20.320Z,1.10
2022-12-09T06:12:07.291Z,1.30
2022-12-09T06:14:54.400Z,1.33
2022-12-09T06:17:41.692Z,1.30
2022-12-09T06:20:28.732Z,1.40
2022-12-09T06:23:15.558Z,1.50
2022-12-09T06:26:04.907Z,1.40
2022-12-09T06:28:52.219Z,1.50
2022-12-09T06:31:39.517Z,1.43
2022-12-09T06:34:27.117Z,1.37
2022-12-09T06:37:14.346Z,1.20
2022-12-09T06:40:01.404Z,1.53
2022-12-09T06:42:48.334Z,1.67
2022-12-09T06:45:35.402Z,1.50
2022-12-09T06:48:22.457Z,2.00
2022-12-09T06:51:11.392Z,1.70
2022-12-09T06:53:58.708Z,1.97
2022-12-09T06:56:41.881Z,1.60
2022-12-09T06:59:30.571Z,1.73
2022-12-09T07:02:17.879Z,2.00
2022-12-09T07:05:05.782Z,1.30
2022-12-09T07:07:53.851Z,1.67
2022-12-09T07:10:41.522Z,1.80
2022-12-09T07:13:28.827Z,2.00
2022-12-09T07:16:15.796Z,1.80
2022-12-09T07:19:02.691Z,1.77
2022-12-09T07:21:50.104Z,1.87
2022-12-09T07:24:37.682Z,1.83
2022-12-09T07:27:26.249Z,1.73
2022-12-09T07:30:13.086Z,1.80
2022-12-09T07:32:59.998Z,2.23
2022-12-09T07:35:47.203Z,1.60
2022-12-09T07:38:34.047Z,1.80
2022-12-09T07:41:29.633Z,2.17
2022-12-09T07:44:16.874Z,2.03
2022-12-09T07:47:04.041Z,2.00
2022-12-09T07:49:51.434Z,2.00
2022-12-09T07:52:38.445Z,1.97
2022-12-09T07:55:26.272Z,1.50
2022-12-09T07:58:13.522Z,1.87
2022-12-09T08:01:00.521Z,1.50
2022-12-09T08:03:47.608Z,1.83
2022-12-09T08:06:37.890Z,1.70
2022-12-09T08:09:30.357Z,1.90
2022-12-09T08:12:17.685Z,1.33
2022-12-09T08:15:04.737Z,1.30
2022-12-09T08:17:53.087Z,1.30
2022-12-09T08:20:39.970Z,1.40
2022-12-09T08:23:27.185Z,1.30
2022-12-09T08:26:15.481Z,1.20
2022-12-09T08:29:02.772Z,1.17
2022-12-09T08:31:49.773Z,1.20
2022-12-09T08:34:36.703Z,1.20
2022-12-09T08:37:24.182Z,1.20
2022-12-09T08:40:11.329Z,1.00
2022-12-09T08:42:58.697Z,1.00
2022-12-09T08:45:46.119Z,1.00
2022-12-09T08:48:33.056Z,1.20
2022-12-09T08:51:20.309Z,1.07
2022-12-09T08:54:07.164Z,0.90
2022-12-09T08:56:55.219Z,1.20
2022-12-09T08:59:45.334Z,0.97
2022-12-09T09:02:32.913Z,1.13
2022-12-09T09:05:20.911Z,0.80
2022-12-09T09:08:08.259Z,0.70
2022-12-09T09:10:56.962Z,0.87
2022-12-09T09:13:44.339Z,0.90
2022-12-09T09:16:34.012Z,1.10
2022-12-09T09:19:21.748Z,1.00
2022-12-09T09:22:09.374Z,0.90
2022-12-09T09:24:56.289Z,0.90
2022-12-09T09:27:43.384Z,1.00
2022-12-09T09:30:30.600Z,0.90
2022-12-09T09:33:17.811Z,0.87
2022-12-09T09:36:09.893Z,0.87
2022-12-09T09:38:57.581Z,0.87
2022-12-09T09:41:46.398Z,0.87
2022-12-09T09:44:25.617Z,0.77
2022-12-09T09:47:14.905Z,0.80
2022-12-09T09:50:13.710Z,0.77
2022-12-09T09:53:02.512Z,0.77
2022-12-09T09:56:17.646Z,0.70
2022-12-09T09:59:16.131Z,0.97
2022-12-09T10:02:10.706Z,0.80
2022-12-09T10:05:06.964Z,1.00
2022-12-09T10:07:44.727Z,0.80
2022-12-09T10:11:10.231Z,1.00
2022-12-09T10:14:03.998Z,0.80
2022-12-09T10:17:03.466Z,1.10
2022-12-09T10:19:56.087Z,0.90
2022-12-09T10:22:50.578Z,0.80
2022-12-09T10:25:44.898Z,1.00
2022-12-09T10:28:37.966Z,1.07
2022-12-09T10:31:25.899Z,0.90
2022-12-09T10:34:12.877Z,0.83
2022-12-09T10:37:03.328Z,1.00
2022-12-09T10:39:50.980Z,0.80
2022-12-09T10:42:36.728Z,0.80
2022-12-09T10:45:45.640Z,0.90
2022-12-09T10:48:53.041Z,0.80
2022-12-09T11:51:12.335Z,0.63
2022-12-09T11:54:45.206Z,0.80
2022-12-09T11:58:10.173Z,0.83
2022-12-09T12:01:15.309Z,0.80
2022-12-09T12:04:14.654Z,0.53
2022-12-09T12:07:43.947Z,0.80
2022-12-09T12:11:00.211Z,0.90
2022-12-09T12:14:09.693Z,0.70
2022-12-09T12:17:28.973Z,0.60
2022-12-09T12:20:36.134Z,0.67
2022-12-09T12:23:49.914Z,0.53
2022-12-09T12:27:15.444Z,0.50
2022-12-09T12:30:44.962Z,0.70
2022-12-09T12:34:25.603Z,0.70
2022-12-09T12:38:17.221Z,0.67
2022-12-09T12:41:36.021Z,0.60
2022-12-09T12:45:12.858Z,0.73
2022-12-09T12:48:31.608Z,0.57
2022-12-09T12:51:46.397Z,0.67
2022-12-09T12:54:36.399Z,0.70
2022-12-09T12:58:07.394Z,0.67
2022-12-09T13:01:31.578Z,0.47
2022-12-09T13:04:59.103Z,0.80
2022-12-09T13:08:16.385Z,0.60
2022-12-09T13:11:30.874Z,0.60
2022-12-09T13:14:45.247Z,0.60
2022-12-09T13:17:55.640Z,0.60
2022-12-09T13:21:12.560Z,0.90
2022-12-09T13:24:37.914Z,0.80
2022-12-09T13:27:53.623Z,0.57
2022-12-09T13:31:11.603Z,0.53
2022-12-09T13:34:24.494Z,0.70
2022-12-09T13:38:03.454Z,0.60
2022-12-09T13:41:10.170Z,0.60
2022-12-09T13:44:32.934Z,0.80
2022-12-09T13:47:48.493Z,0.70
2022-12-09T13:51:02.805Z,0.70
2022-12-09T13:54:19.966Z,1.00
2022-12-09T13:57:52.226Z,0.70
2022-12-09T14:01:04.751Z,0.50
2022-12-09T14:04:32.912Z,1.00
2022-12-09T14:07:54.853Z,0.70
2022-12-09T14:11:08.587Z,0.87
2022-12-09T14:14:44.236Z,0.90
2022-12-09T14:17:50.907Z,0.80
2022-12-09T14:20:59.571Z,0.60
2022-12-09T14:24:28.095Z,0.60
2022-12-09T14:27:44.080Z,0.83
2022-12-09T14:30:50.793Z,0.77
2022-12-09T14:34:07.048Z,0.83
2022-12-09T14:37:28.766Z,0.80
2022-12-09T14:40:35.463Z,0.70
2022-12-09T14:44:20.602Z,0.70
2022-12-09T14:47:48.953Z,0.77
2022-12-09T14:50:56.400Z,0.70
2022-12-09T14:54:06.662Z,0.90
2022-12-09T14:57:17.576Z,0.67
2022-12-09T15:00:26.597Z,0.87
2022-12-09T15:03:45.713Z,0.80
2022-12-09T15:06:52.766Z,1.10
2022-12-09T15:10:16.330Z,1.10
2022-12-09T15:13:23.537Z,1.00
2022-12-09T15:16:19.688Z,1.00
2022-12-09T15:19:07.545Z,1.20
2022-12-09T15:22:14.503Z,1.00
2022-12-09T15:25:21.402Z,0.90
2022-12-09T15:28:37.063Z,1.10
2022-12-09T15:31:46.800Z,1.40
2022-12-09T15:34:53.561Z,1.83
2022-12-09T15:38:00.499Z,1.27
2022-12-09T15:41:06.973Z,1.33
2022-12-09T15:44:17.657Z,1.90
2022-12-09T15:47:29.509Z,1.60
2022-12-09T15:50:41.263Z,1.83
2022-12-09T15:54:03.177Z,1.70
2022-12-09T15:57:09.867Z,1.87
2022-12-09T16:00:18.125Z,1.80
2022-12-09T16:03:26.904Z,2.30
2022-12-09T16:06:33.712Z,1.90
2022-12-09T16:09:40.986Z,2.20
2022-12-09T16:12:50.701Z,2.07
2022-12-09T16:16:08.754Z,2.10
2022-12-09T16:19:15.615Z,2.33
2022-12-09T16:22:45.234Z,1.90
2022-12-09T16:26:04.892Z,1.93
2022-12-09T16:29:36.822Z,2.10
2022-12-09T16:32:45.480Z,2.73
2022-12-09T16:36:05.143Z,2.00
2022-12-09T16:39:24.024Z,1.80
2022-12-09T16:41:50.823Z,2.10
2022-12-09T16:44:34.628Z,2.53
2022-12-09T16:47:29.226Z,2.53
2022-12-09T16:49:57.292Z,2.03
2022-12-09T16:52:45.398Z,2.70
2022-12-09T16:55:52.461Z,2.37
2022-12-09T16:58:39.558Z,2.30
2022-12-09T17:01:26.749Z,3.07
2022-12-09T17:04:22.622Z,3.33
2022-12-09T17:07:09.438Z,2.50
2022-12-09T17:09:56.187Z,2.50
2022-12-09T17:12:42.967Z,2.60
2022-12-09T17:15:34.097Z,2.57
2022-12-09T17:18:20.847Z,2.43
2022-12-09T17:21:07.623Z,2.80
2022-12-09T17:23:55.503Z,2.77
2022-12-09T17:26:42.318Z,2.20
2022-12-09T17:29:29.138Z,2.87
2022-12-09T17:32:15.887Z,3.03
2022-12-09T17:35:06.216Z,2.50
2022-12-09T17:37:57.571Z,2.83
2022-12-09T17:40:44.310Z,2.80
2022-12-09T17:43:31.103Z,2.67
2022-12-09T17:46:22.180Z,2.17
2022-12-09T17:49:08.959Z,2.50
2022-12-09T17:51:57.073Z,2.37
2022-12-09T17:54:44.056Z,2.70
2022-12-09T17:57:30.834Z,2.70
2022-12-09T18:00:17.605Z,2.70
2022-12-09T18:03:04.431Z,2.77
2022-12-09T18:05:51.189Z,2.63
2022-12-09T18:08:37.934Z,2.57
2022-12-09T18:11:26.590Z,2.30
2022-12-09T18:14:14.108Z,2.20
2022-12-09T18:17:01.218Z,2.73
2022-12-09T18:19:48.266Z,2.57
2022-12-09T18:22:35.024Z,2.67
2022-12-09T18:25:21.894Z,2.43
2022-12-09T18:28:08.730Z,2.90
2022-12-09T18:30:58.401Z,2.90
2022-12-09T18:33:45.523Z,2.60
2022-12-09T18:36:35.602Z,2.83
2022-12-09T18:39:22.368Z,2.43
2022-12-09T18:42:09.136Z,2.60
2022-12-09T18:44:56.084Z,2.97
2022-12-09T18:47:42.838Z,2.87
2022-12-09T18:50:30.508Z,2.30
2022-12-09T18:53:17.266Z,2.53
2022-12-09T18:56:04.409Z,2.57
2022-12-09T18:59:06.627Z,2.87
2022-12-09T19:01:55.750Z,2.57
2022-12-09T19:04:45.004Z,2.20
2022-12-09T19:07:34.086Z,2.90
2022-12-09T19:10:20.860Z,2.47
2022-12-09T19:13:07.647Z,2.90
2022-12-09T19:15:54.444Z,2.57
2022-12-09T19:18:41.205Z,3.03
2022-12-09T19:21:32.304Z,2.80
2022-12-09T19:24:19.414Z,2.67
2022-12-09T19:27:06.620Z,2.60
2022-12-09T19:29:53.394Z,3.00
2022-12-09T19:32:55.452Z,2.77
2022-12-09T19:35:42.188Z,2.93
2022-12-09T19:38:28.950Z,2.70
2022-12-09T19:41:20.190Z,2.90
2022-12-09T19:44:07.545Z,2.23
2022-12-09T19:46:55.049Z,2.77
2022-12-09T19:49:43.149Z,2.50
2022-12-09T19:52:30.746Z,2.57
2022-12-09T19:55:17.510Z,3.10
2022-12-09T19:58:04.309Z,2.47
2022-12-09T20:00:51.409Z,2.60
2022-12-09T20:03:38.209Z,2.80
2022-12-09T20:06:27.792Z,2.80
2022-12-09T20:09:14.608Z,2.67
2022-12-09T20:12:02.034Z,2.77
2022-12-09T20:14:48.813Z,3.03
2022-12-09T20:17:35.574Z,2.97
2022-12-09T20:20:22.461Z,2.37
2022-12-09T20:23:09.226Z,2.90
2022-12-09T20:25:56.572Z,2.10
2022-12-09T20:28:43.349Z,2.53
2022-12-09T20:31:33.298Z,2.77
2022-12-09T20:34:25.975Z,2.53
2022-12-09T20:37:12.847Z,2.70
2022-12-09T20:39:59.601Z,2.37
2022-12-09T20:42:46.361Z,2.73
2022-12-09T20:45:33.138Z,1.97
2022-12-09T20:48:19.957Z,3.27
2022-12-09T20:51:06.715Z,2.47
2022-12-09T20:53:54.785Z,2.50
2022-12-09T20:56:43.229Z,2.80
2022-12-09T20:59:32.386Z,2.40
2022-12-09T21:02:19.845Z,2.50
2022-12-09T21:05:06.621Z,2.97
2022-12-09T21:07:53.423Z,2.90
2022-12-09T21:10:40.226Z,2.40
2022-12-09T21:13:27.001Z,2.50
2022-12-09T21:16:13.819Z,2.30
2022-12-09T21:19:00.631Z,2.63
2022-12-09T21:21:50.700Z,2.53
2022-12-09T21:24:38.581Z,2.40
2022-12-09T21:27:26.581Z,2.20
2022-12-09T21:30:13.358Z,1.90
2022-12-09T21:33:00.144Z,1.77
2022-12-09T21:35:26.927Z,2.17
2022-12-09T21:37:56.203Z,1.57
2022-12-09T21:40:23.238Z,2.00
2022-12-09T21:42:50.140Z,1.73
2022-12-09T21:45:17.006Z,1.70
2022-12-09T21:47:43.929Z,1.47
2022-12-09T21:50:10.948Z,1.60
2022-12-09T21:52:37.741Z,1.57
2022-12-09T21:55:04.957Z,1.50
2022-12-09T21:57:34.194Z,1.40
2022-12-09T22:00:01.060Z,1.60
2022-12-09T22:02:47.869Z,1.10
2022-12-09T22:05:34.788Z,1.30
2022-12-09T22:08:21.640Z,1.40
2022-12-09T22:11:08.414Z,1.37
2022-12-09T22:13:55.479Z,1.10
2022-12-09T22:16:45.328Z,1.00
2022-12-09T22:19:36.582Z,1.07
2022-12-09T22:22:23.382Z,1.00
2022-12-09T22:25:10.154Z,0.97
2022-12-09T22:27:57.019Z,0.80
2022-12-09T22:30:43.845Z,1.07
2022-12-09T22:33:30.651Z,0.83
2022-12-09T22:36:22.779Z,0.80
2022-12-09T22:39:10.133Z,1.00
2022-12-09T22:41:56.881Z,0.87
2022-12-09T22:44:43.643Z,0.87
2022-12-09T22:47:30.451Z,1.07
2022-12-09T22:50:17.258Z,0.90
2022-12-09T22:53:04.034Z,0.83
2022-12-09T22:55:50.826Z,0.87
2022-12-09T22:58:37.652Z,1.00
2022-12-09T23:01:32.913Z,0.93
2022-12-09T23:04:20.242Z,0.90
2022-12-09T23:07:07.600Z,1.00
2022-12-09T23:09:54.355Z,1.10
2022-12-09T23:12:41.105Z,0.93
2022-12-09T23:15:28.104Z,1.00
2022-12-09T23:18:14.927Z,0.80
2022-12-09T23:21:01.673Z,0.97
2022-12-09T23:23:48.450Z,0.90
2022-12-09T23:26:38.032Z,1.30
2022-12-09T23:29:27.382Z,0.97
2022-12-09T23:32:14.145Z,1.10
2022-12-09T23:35:05.850Z,1.00
2022-12-09T23:37:54.188Z,1.17
2022-12-09T23:40:41.197Z,0.90
2022-12-09T23:43:27.945Z,1.23
2022-12-09T23:46:15.930Z,1.40
2022-12-09T23:49:04.822Z,1.07
2022-12-09T23:51:53.318Z,1.37
2022-12-09T23:54:40.089Z,1.03
2022-12-09T23:57:26.829Z,0.90
